createdAt,value
2023-05-14T00:02:09.278Z,25.50
2023-05-14T00:04:37.559Z,25.40
2023-05-14T00:07:05.807Z,25.40
2023-05-14T00:09:35.361Z,25.40
2023-05-14T00:12:05.248Z,25.30
2023-05-14T00:14:33.361Z,25.30
2023-05-14T00:17:01.521Z,25.40
2023-05-14T00:19:29.646Z,25.30
2023-05-14T00:21:57.714Z,25.30
2023-05-14T00:24:25.841Z,25.30
2023-05-14T00:26:53.930Z,25.30
2023-05-14T00:29:23.408Z,25.20
2023-05-14T00:31:51.580Z,25.20
2023-05-14T00:34:19.754Z,25.20
2023-05-14T00:36:47.902Z,25.10
2023-05-14T00:39:16.127Z,25.20
2023-05-14T00:41:44.234Z,25.20
2023-05-14T00:44:12.311Z,25.10
2023-05-14T00:46:43.787Z,25.10
2023-05-14T00:49:11.998Z,25.10
2023-05-14T00:51:41.487Z,25.10
2023-05-14T00:54:10.392Z,25.10
2023-05-14T00:56:38.488Z,25.10
2023-05-14T00:59:06.589Z,25.00
2023-05-14T01:01:34.799Z,25.10
2023-05-14T01:04:04.764Z,25.00
2023-05-14T01:06:41.201Z,25.00
2023-05-14T01:09:12.654Z,24.90
2023-05-14T01:11:50.569Z,24.90
2023-05-14T01:14:23.071Z,24.90
2023-05-14T01:16:53.851Z,24.90
2023-05-14T01:19:34.655Z,24.90
2023-05-14T01:22:04.195Z,24.80
2023-05-14T01:24:32.374Z,24.80
2023-05-14T01:27:07.705Z,24.80
2023-05-14T01:29:38.965Z,24.80
2023-05-14T01:32:09.764Z,24.80
2023-05-14T01:34:38.956Z,24.80
2023-05-14T01:37:09.612Z,24.70
2023-05-14T01:39:38.922Z,24.70
2023-05-14T01:42:08.849Z,24.70
2023-05-14T01:44:37.565Z,24.70
2023-05-14T01:47:06.004Z,24.70
2023-05-14T01:49:34.084Z,24.60
2023-05-14T01:52:02.204Z,24.60
2023-05-14T01:54:31.681Z,24.60
2023-05-14T01:56:59.904Z,24.50
2023-05-14T01:59:29.834Z,24.50
2023-05-14T02:01:58.086Z,24.50
2023-05-14T02:04:26.480Z,24.50
2023-05-14T02:06:54.657Z,24.50
2023-05-14T02:09:22.745Z,24.50
2023-05-14T02:11:52.242Z,24.40
2023-05-14T02:14:20.365Z,24.40
2023-05-14T02:16:48.470Z,24.40
2023-05-14T02:19:16.601Z,24.40
2023-05-14T02:21:44.829Z,24.40
2023-05-14T02:24:12.956Z,24.40
2023-05-14T02:26:41.059Z,24.30
2023-05-14T02:29:10.630Z,24.30
2023-05-14T02:31:38.825Z,24.30
2023-05-14T02:34:07.604Z,24.30
2023-05-14T02:36:35.817Z,24.20
2023-05-14T02:39:04.690Z,24.20
2023-05-14T02:41:32.776Z,24.20
2023-05-14T02:44:00.921Z,24.20
2023-05-14T02:46:31.635Z,24.20
2023-05-14T02:48:59.935Z,24.20
2023-05-14T02:51:28.067Z,24.10
2023-05-14T02:53:56.178Z,24.10
2023-05-14T02:56:24.307Z,24.10
2023-05-14T02:58:52.403Z,24.10
2023-05-14T03:01:21.144Z,24.00
2023-05-14T03:03:50.958Z,24.00
2023-05-14T03:06:19.263Z,24.00
2023-05-14T03:08:47.332Z,24.00
2023-05-14T03:11:15.462Z,24.00
2023-05-14T03:13:43.598Z,23.90
2023-05-14T03:16:12.115Z,23.90
2023-05-14T03:18:40.285Z,23.90
2023-05-14T03:21:09.858Z,23.90
2023-05-14T03:23:37.942Z,23.90
2023-05-14T03:26:06.415Z,23.80
2023-05-14T03:28:35.209Z,23.90
2023-05-14T03:31:03.455Z,23.80
2023-05-14T03:33:31.688Z,23.80
2023-05-14T03:35:59.829Z,23.80
2023-05-14T03:38:29.326Z,23.80
2023-05-14T03:40:57.951Z,23.70
2023-05-14T03:43:26.128Z,23.70
2023-05-14T03:45:54.229Z,23.70
2023-05-14T03:48:22.396Z,23.70
2023-05-14T03:50:51.325Z,23.70
2023-05-14T03:53:19.442Z,23.70
2023-05-14T03:55:48.903Z,23.70
2023-05-14T03:58:17.510Z,23.70
2023-05-14T04:00:45.689Z,23.60
2023-05-14T04:03:13.879Z,23.60
2023-05-14T04:05:42.044Z,23.60
2023-05-14T04:08:10.156Z,23.60
2023-05-14T04:10:38.333Z,23.60
2023-05-14T04:13:07.810Z,23.60
2023-05-14T04:15:39.214Z,23.60
2023-05-14T04:18:07.439Z,23.60
2023-05-14T04:20:35.656Z,23.60
2023-05-14T04:23:03.855Z,23.50
2023-05-14T04:25:31.957Z,23.50
2023-05-14T04:28:00.163Z,23.50
2023-05-14T04:30:29.780Z,23.50
2023-05-14T04:32:57.915Z,23.50
2023-05-14T04:35:26.218Z,23.50
2023-05-14T04:37:54.348Z,23.50
2023-05-14T04:40:23.388Z,23.50
2023-05-14T04:42:51.607Z,23.50
2023-05-14T04:45:20.286Z,23.50
2023-05-14T04:47:50.054Z,23.40
2023-05-14T04:50:18.192Z,23.50
2023-05-14T04:52:46.270Z,23.50
2023-05-14T04:55:14.492Z,23.50
2023-05-14T04:57:42.572Z,23.50
2023-05-14T05:00:12.046Z,23.50
2023-05-14T05:02:40.517Z,23.50
2023-05-14T05:05:10.974Z,23.50
2023-05-14T05:07:39.081Z,23.50
2023-05-14T05:10:08.591Z,23.50
2023-05-14T05:12:36.708Z,23.50
2023-05-14T05:15:05.068Z,23.50
2023-05-14T05:17:33.202Z,23.60
2023-05-14T05:20:01.279Z,23.50
2023-05-14T05:22:30.760Z,23.50
2023-05-14T05:24:59.808Z,23.60
2023-05-14T05:27:28.173Z,23.60
2023-05-14T05:29:56.295Z,23.60
2023-05-14T05:32:24.726Z,23.60
2023-05-14T05:34:53.011Z,23.60
2023-05-14T05:37:21.122Z,23.60
2023-05-14T05:39:50.592Z,23.60
2023-05-14T05:42:18.685Z,23.70
2023-05-14T05:44:46.814Z,23.70
2023-05-14T05:47:14.967Z,23.70
2023-05-14T05:49:43.066Z,23.70
2023-05-14T05:52:11.438Z,23.70
2023-05-14T05:54:40.162Z,23.80
2023-05-14T05:57:09.653Z,23.80
2023-05-14T05:59:37.750Z,23.80
2023-05-14T06:02:06.404Z,23.90
2023-05-14T06:04:34.571Z,23.90
2023-05-14T06:07:02.675Z,23.90
2023-05-14T06:09:30.808Z,24.00
2023-05-14T06:11:58.902Z,24.00
2023-05-14T06:14:28.409Z,24.00
2023-05-14T06:16:56.599Z,24.00
2023-05-14T06:19:24.794Z,24.10
2023-05-14T06:21:52.886Z,24.20
2023-05-14T06:24:21.320Z,24.20
2023-05-14T06:26:49.913Z,24.20
2023-05-14T06:29:18.029Z,24.20
2023-05-14T06:31:47.682Z,24.20
2023-05-14T06:34:15.849Z,24.20
2023-05-14T06:36:43.952Z,24.10
2023-05-14T06:39:12.586Z,24.10
2023-05-14T06:41:40.713Z,24.00
2023-05-14T06:44:08.807Z,24.10
2023-05-14T06:46:36.934Z,24.10
2023-05-14T06:49:06.563Z,24.20
2023-05-14T06:51:34.766Z,24.40
2023-05-14T06:54:03.037Z,24.50
2023-05-14T06:56:31.151Z,24.70
2023-05-14T06:58:59.219Z,24.70
2023-05-14T07:01:27.490Z,24.80
2023-05-14T07:03:55.694Z,24.90
2023-05-14T07:06:25.406Z,25.10
2023-05-14T07:08:53.488Z,25.30
2023-05-14T07:11:22.157Z,25.50
2023-05-14T07:13:50.361Z,25.80
2023-05-14T07:16:18.510Z,25.90
2023-05-14T07:18:46.896Z,25.90
2023-05-14T07:21:15.080Z,25.90
2023-05-14T07:23:44.558Z,26.00
2023-05-14T07:26:12.714Z,26.10
2023-05-14T07:28:40.825Z,26.20
2023-05-14T07:31:09.319Z,26.40
2023-05-14T07:33:37.875Z,26.60
2023-05-14T07:36:06.453Z,26.90
2023-05-14T07:38:34.909Z,27.20
2023-05-14T07:41:04.461Z,27.40
2023-05-14T07:43:32.633Z,27.70
2023-05-14T07:46:00.755Z,28.00
2023-05-14T07:48:28.906Z,28.20
2023-05-14T07:50:57.101Z,28.50
2023-05-14T07:53:26.245Z,28.60
2023-05-14T07:55:54.642Z,28.70
2023-05-14T07:58:25.174Z,28.90
2023-05-14T08:00:53.374Z,29.10
2023-05-14T08:03:21.658Z,29.20
2023-05-14T08:05:49.840Z,29.30
2023-05-14T08:08:17.964Z,29.40
2023-05-14T08:10:46.093Z,29.50
2023-05-14T08:13:14.202Z,29.60
2023-05-14T08:15:43.690Z,29.80
2023-05-14T08:18:12.064Z,30.00
2023-05-14T08:20:40.363Z,30.30
2023-05-14T08:23:09.254Z,29.90
2023-05-14T08:25:37.609Z,30.50
2023-05-14T08:28:06.048Z,30.80
2023-05-14T08:30:34.400Z,30.50
2023-05-14T08:33:03.984Z,30.60
2023-05-14T08:35:31.904Z,30.50
2023-05-14T08:37:59.971Z,30.50
2023-05-14T08:40:28.437Z,30.50
2023-05-14T08:42:58.428Z,30.70
2023-05-14T08:45:34.017Z,30.70
2023-05-14T08:48:08.878Z,30.70
2023-05-14T08:50:37.552Z,31.00
2023-05-14T08:53:05.981Z,31.30
2023-05-14T08:55:34.809Z,31.90
2023-05-14T08:58:03.048Z,31.80
2023-05-14T09:00:31.249Z,30.90
2023-05-14T09:03:01.018Z,31.00
2023-05-14T09:05:30.523Z,30.60
2023-05-14T09:07:58.478Z,30.30
2023-05-14T09:10:26.831Z,30.00
2023-05-14T09:12:55.153Z,29.80
2023-05-14T09:15:24.469Z,29.80
2023-05-14T09:17:53.366Z,29.70
2023-05-14T09:20:22.724Z,29.60
2023-05-14T09:22:55.345Z,29.50
2023-05-14T09:25:28.362Z,29.50
2023-05-14T09:27:58.787Z,29.50
2023-05-14T09:30:30.526Z,29.40
2023-05-14T09:32:58.595Z,29.40
2023-05-14T09:35:26.946Z,29.40
2023-05-14T09:37:57.026Z,29.40
2023-05-14T09:40:25.931Z,29.40
2023-05-14T09:42:54.175Z,29.50
2023-05-14T09:45:22.304Z,29.40
2023-05-14T09:47:50.581Z,29.40
2023-05-14T09:50:18.741Z,29.40
2023-05-14T09:52:46.823Z,29.40
2023-05-14T09:55:16.971Z,29.40
2023-05-14T09:57:45.166Z,29.50
2023-05-14T10:00:14.336Z,29.60
2023-05-14T10:02:45.660Z,29.70
2023-05-14T10:05:15.932Z,29.90
2023-05-14T10:07:48.736Z,29.90
2023-05-14T10:10:21.017Z,30.00
2023-05-14T10:12:53.342Z,30.00
2023-05-14T10:15:26.734Z,30.10
2023-05-14T10:17:59.931Z,30.20
2023-05-14T10:20:28.855Z,30.90
2023-05-14T10:22:57.872Z,30.10
2023-05-14T10:25:28.102Z,30.10
2023-05-14T10:27:56.877Z,30.00
2023-05-14T10:30:25.460Z,29.10
2023-05-14T10:33:08.486Z,29.00
2023-05-14T10:36:00.855Z,29.20
2023-05-14T10:38:29.751Z,29.40
2023-05-14T10:41:01.775Z,29.70
2023-05-14T10:43:31.032Z,29.40
2023-05-14T10:45:59.921Z,29.30
2023-05-14T10:48:28.433Z,29.50
2023-05-14T10:50:57.854Z,29.50
2023-05-14T10:53:32.589Z,29.60
2023-05-14T10:56:05.897Z,29.80
2023-05-14T10:58:36.260Z,29.80
2023-05-14T11:01:06.134Z,32.10
2023-05-14T11:03:40.946Z,30.00
2023-05-14T11:06:10.069Z,30.40
2023-05-14T11:08:38.885Z,30.70
2023-05-14T11:11:09.828Z,30.90
2023-05-14T11:13:37.964Z,31.10
2023-05-14T11:18:40.761Z,31.40
2023-05-14T11:21:08.999Z,31.50
2023-05-14T11:23:37.149Z,31.70
2023-05-14T11:26:05.374Z,31.80
2023-05-14T11:28:35.689Z,31.90
2023-05-14T11:31:05.691Z,32.10
2023-05-14T11:33:33.851Z,32.20
2023-05-14T11:36:01.958Z,32.40
2023-05-14T11:38:30.056Z,32.50
2023-05-14T11:40:59.788Z,32.60
2023-05-14T11:43:29.487Z,32.80
2023-05-14T11:45:59.070Z,32.90
2023-05-14T11:48:27.335Z,32.90
2023-05-14T11:50:55.421Z,33.00
2023-05-14T11:53:28.221Z,33.10
2023-05-14T11:55:57.926Z,33.30
2023-05-14T11:58:26.476Z,33.30
2023-05-14T12:00:57.029Z,33.10
2023-05-14T12:03:29.681Z,33.10
2023-05-14T12:05:59.251Z,33.10
2023-05-14T12:08:29.036Z,33.20
2023-05-14T12:10:58.933Z,33.30
2023-05-14T12:13:28.174Z,33.40
2023-05-14T12:15:57.774Z,33.50
2023-05-14T12:18:29.360Z,33.70
2023-05-14T12:20:57.751Z,33.80
2023-05-14T12:23:30.222Z,33.90
2023-05-14T12:26:03.923Z,33.90
2023-05-14T12:28:32.443Z,34.10
2023-05-14T12:31:01.056Z,34.20
2023-05-14T12:33:30.616Z,34.30
2023-05-14T12:36:07.396Z,34.20
2023-05-14T12:38:48.338Z,34.10
2023-05-14T12:41:16.478Z,34.20
2023-05-14T12:43:45.612Z,34.30
2023-05-14T12:46:13.684Z,34.40
2023-05-14T12:48:43.153Z,34.50
2023-05-14T12:51:11.248Z,34.70
2023-05-14T12:53:39.424Z,34.80
2023-05-14T12:56:08.170Z,34.80
2023-05-14T12:58:36.312Z,34.80
2023-05-14T13:01:04.543Z,34.70
2023-05-14T13:03:32.845Z,34.50
2023-05-14T13:06:02.461Z,34.30
2023-05-14T13:08:31.025Z,34.20
2023-05-14T13:10:59.068Z,34.10
2023-05-14T13:13:27.385Z,34.00
2023-05-14T13:15:55.598Z,34.00
2023-05-14T13:18:23.761Z,34.00
2023-05-14T13:20:51.879Z,34.00
2023-05-14T13:23:21.316Z,33.90
2023-05-14T13:25:50.131Z,33.90
2023-05-14T13:28:18.284Z,34.00
2023-05-14T13:31:05.707Z,33.90
2023-05-14T13:33:34.655Z,34.00
2023-05-14T13:36:02.803Z,34.00
2023-05-14T13:38:32.443Z,34.00
2023-05-14T13:41:02.686Z,34.10
2023-05-14T13:43:31.828Z,34.00
2023-05-14T13:46:00.217Z,33.30
2023-05-14T13:48:28.528Z,32.80
2023-05-14T13:50:56.631Z,32.40
2023-05-14T13:53:26.096Z,32.30
2023-05-14T13:55:58.124Z,32.40
2023-05-14T13:58:26.566Z,32.50
2023-05-14T14:00:54.991Z,32.50
2023-05-14T14:03:23.116Z,32.70
2023-05-14T14:05:51.665Z,33.00
2023-05-14T14:08:23.799Z,33.30
2023-05-14T14:10:54.440Z,33.60
2023-05-14T14:13:24.480Z,33.90
2023-05-14T14:15:52.818Z,34.00
2023-05-14T14:18:21.069Z,34.20
2023-05-14T14:20:49.368Z,34.40
2023-05-14T14:23:17.489Z,34.70
2023-05-14T14:25:45.622Z,35.00
2023-05-14T14:28:13.726Z,35.40
2023-05-14T14:30:43.856Z,35.60
2023-05-14T14:33:12.406Z,35.80
2023-05-14T14:35:40.641Z,36.10
2023-05-14T14:38:08.744Z,36.50
2023-05-14T14:40:36.990Z,36.90
2023-05-14T14:43:05.115Z,37.00
2023-05-14T14:45:33.248Z,36.90
2023-05-14T14:48:28.379Z,37.00
2023-05-14T14:50:56.860Z,37.30
2023-05-14T14:53:25.860Z,37.50
2023-05-14T14:55:54.363Z,37.70
2023-05-14T14:58:22.749Z,37.80
2023-05-14T15:00:52.801Z,38.00
2023-05-14T15:03:21.715Z,38.10
2023-05-14T15:05:51.243Z,38.30
2023-05-14T15:08:19.417Z,38.40
2023-05-14T15:10:47.548Z,38.60
2023-05-14T15:13:15.660Z,38.70
2023-05-14T15:15:43.746Z,38.60
2023-05-14T15:18:12.162Z,38.70
2023-05-14T15:20:40.427Z,38.70
2023-05-14T15:23:11.526Z,38.70
2023-05-14T15:25:39.756Z,38.80
2023-05-14T15:28:08.302Z,38.90
2023-05-14T15:30:36.818Z,39.00
2023-05-14T15:33:05.248Z,39.10
2023-05-14T15:35:33.385Z,38.90
2023-05-14T15:38:01.492Z,38.90
2023-05-14T15:40:31.097Z,38.90
2023-05-14T15:42:59.175Z,38.90
2023-05-14T15:45:27.287Z,38.80
2023-05-14T15:47:55.410Z,38.70
2023-05-14T15:50:23.752Z,38.60
2023-05-14T15:52:52.052Z,38.50
2023-05-14T15:55:20.679Z,38.40
2023-05-14T15:57:50.904Z,38.30
2023-05-14T16:00:19.696Z,38.20
2023-05-14T16:02:48.120Z,38.10
2023-05-14T16:05:16.301Z,38.10
2023-05-14T16:07:44.517Z,38.00
2023-05-14T16:10:12.800Z,37.90
2023-05-14T16:12:40.911Z,37.90
2023-05-14T16:15:12.616Z,37.80
2023-05-14T16:17:40.920Z,37.70
2023-05-14T16:20:09.910Z,37.60
2023-05-14T16:22:37.826Z,37.50
2023-05-14T16:25:06.754Z,37.30
2023-05-14T16:27:35.457Z,37.10
2023-05-14T16:30:04.505Z,36.90
2023-05-14T16:32:34.667Z,36.80
2023-05-14T16:35:02.976Z,36.70
2023-05-14T16:37:32.059Z,36.50
2023-05-14T16:40:00.182Z,36.40
2023-05-14T16:42:28.306Z,36.30
2023-05-14T16:44:56.425Z,36.20
2023-05-14T16:47:24.550Z,36.00
2023-05-14T16:49:53.983Z,35.90
2023-05-14T16:52:22.072Z,35.70
2023-05-14T16:54:50.144Z,35.60
2023-05-14T16:57:18.273Z,35.50
2023-05-14T16:59:46.450Z,35.40
2023-05-14T17:02:14.587Z,35.20
2023-05-14T17:04:43.323Z,35.10
2023-05-14T17:07:13.077Z,35.00
2023-05-14T17:09:41.338Z,34.90
2023-05-14T17:12:13.026Z,34.80
2023-05-14T17:14:41.153Z,34.70
2023-05-14T17:17:09.278Z,34.60
2023-05-14T17:19:37.392Z,34.50
2023-05-14T17:22:07.323Z,34.40
2023-05-14T17:24:39.016Z,34.30
2023-05-14T17:27:07.375Z,34.20
2023-05-14T17:29:35.713Z,34.10
2023-05-14T17:32:04.902Z,34.00
2023-05-14T17:34:33.112Z,33.90
2023-05-14T17:37:01.892Z,33.70
2023-05-14T17:39:29.976Z,33.00
2023-05-14T17:41:59.421Z,32.30
2023-05-14T17:44:27.545Z,31.70
2023-05-14T17:46:55.678Z,31.30
2023-05-14T17:49:23.836Z,30.80
2023-05-14T17:51:51.910Z,30.70
2023-05-14T17:54:19.999Z,30.70
2023-05-14T17:56:50.864Z,30.60
2023-05-14T17:59:21.954Z,30.40
2023-05-14T18:01:51.768Z,30.30
2023-05-14T18:04:20.055Z,30.30
2023-05-14T18:06:48.207Z,30.40
2023-05-14T18:09:16.348Z,30.30
2023-05-14T18:11:44.752Z,30.40
2023-05-14T18:14:13.024Z,30.60
2023-05-14T18:16:42.638Z,30.60
2023-05-14T18:19:11.407Z,30.40
2023-05-14T18:21:39.756Z,30.30
2023-05-14T18:24:08.559Z,30.20
2023-05-14T18:26:36.718Z,30.20
2023-05-14T18:29:04.877Z,30.20
2023-05-14T18:31:33.044Z,30.20
2023-05-14T18:34:02.546Z,30.10
2023-05-14T18:36:30.491Z,30.00
2023-05-14T18:38:58.544Z,30.00
2023-05-14T18:41:26.718Z,29.90
2023-05-14T18:43:54.835Z,29.80
2023-05-14T18:46:23.048Z,29.80
2023-05-14T18:48:51.998Z,29.70
2023-05-14T18:51:21.434Z,29.70
2023-05-14T18:53:49.332Z,29.50
2023-05-14T18:56:17.440Z,29.20
2023-05-14T18:58:45.537Z,29.00
2023-05-14T19:01:13.669Z,29.00
2023-05-14T19:03:42.274Z,29.10
2023-05-14T19:06:10.537Z,29.10
2023-05-14T19:08:39.974Z,29.10
2023-05-14T19:11:08.031Z,29.10
2023-05-14T19:13:36.107Z,29.10
2023-05-14T19:16:04.268Z,29.10
2023-05-14T19:18:32.574Z,29.10
2023-05-14T19:21:00.717Z,29.00
2023-05-14T19:23:31.083Z,29.00
2023-05-14T19:26:01.164Z,28.90
2023-05-14T19:28:29.345Z,28.90
2023-05-14T19:30:57.597Z,28.90
2023-05-14T19:33:25.949Z,28.90
2023-05-14T19:35:54.125Z,28.90
2023-05-14T19:38:22.220Z,28.80
2023-05-14T19:40:51.132Z,28.80
2023-05-14T19:43:21.041Z,28.80
2023-05-14T19:45:49.171Z,28.80
2023-05-14T19:48:19.163Z,28.70
2023-05-14T19:50:47.466Z,28.60
2023-05-14T19:53:15.771Z,28.60
2023-05-14T20:00:42.720Z,28.50
2023-05-14T20:05:39.422Z,28.50
2023-05-14T20:08:08.189Z,28.50
2023-05-14T20:13:04.994Z,28.40
2023-05-14T20:15:33.088Z,28.40
2023-05-14T20:18:02.634Z,28.40
2023-05-14T20:20:33.140Z,28.30
2023-05-14T20:23:01.673Z,28.30
2023-05-14T20:25:30.136Z,28.30
2023-05-14T20:28:00.229Z,28.30
2023-05-14T20:30:28.563Z,28.30
2023-05-14T20:32:56.717Z,28.30
2023-05-14T20:35:26.470Z,28.30
2023-05-14T20:37:54.763Z,28.30
2023-05-14T20:40:23.031Z,28.20
2023-05-14T20:42:51.438Z,28.20
2023-05-14T20:45:19.671Z,28.00
2023-05-14T20:47:47.859Z,27.90
2023-05-14T20:50:16.326Z,27.90
2023-05-14T20:52:45.892Z,27.90
2023-05-14T20:55:14.064Z,28.00
2023-05-14T20:57:43.552Z,27.90
2023-05-14T21:00:12.628Z,28.00
2023-05-14T21:02:40.853Z,27.90
2023-05-14T21:05:09.299Z,27.90
2023-05-14T21:07:37.470Z,27.90
2023-05-14T21:10:08.651Z,27.90
2023-05-14T21:12:36.752Z,27.90
2023-05-14T21:15:05.804Z,27.90
2023-05-14T21:17:33.992Z,27.80
2023-05-14T21:20:02.191Z,27.80
2023-05-14T21:22:30.328Z,27.90
2023-05-14T21:24:58.423Z,27.80
2023-05-14T21:27:27.927Z,27.80
2023-05-14T21:29:56.033Z,27.70
2023-05-14T21:32:24.242Z,27.70
2023-05-14T21:34:52.429Z,27.70
2023-05-14T21:37:20.654Z,27.70
2023-05-14T21:39:48.728Z,27.70
2023-05-14T21:42:17.770Z,27.60
2023-05-14T21:44:47.273Z,27.60
2023-05-14T21:47:16.357Z,27.60
2023-05-14T21:49:44.478Z,27.60
2023-05-14T21:52:12.742Z,27.50
2023-05-14T21:54:40.956Z,27.50
2023-05-14T21:57:09.088Z,27.50
2023-05-14T21:59:38.929Z,27.40
2023-05-14T22:02:08.618Z,27.40
2023-05-14T22:04:36.762Z,27.40
2023-05-14T22:07:05.267Z,27.40
2023-05-14T22:09:33.391Z,27.30
2023-05-14T22:12:01.500Z,27.30
2023-05-14T22:14:29.595Z,27.30
2023-05-14T22:16:58.255Z,27.30
2023-05-14T22:19:27.919Z,27.20
2023-05-14T22:21:56.117Z,27.20
2023-05-14T22:24:24.248Z,27.20
2023-05-14T22:26:52.412Z,27.10
2023-05-14T22:29:20.538Z,27.10
2023-05-14T22:31:48.766Z,27.10
2023-05-14T22:34:17.230Z,27.00
2023-05-14T22:36:46.805Z,27.00
2023-05-14T22:39:14.695Z,27.00
2023-05-14T22:41:42.796Z,26.90
2023-05-14T22:44:10.958Z,26.90
2023-05-14T22:46:39.233Z,26.90
2023-05-14T22:49:07.380Z,26.80
2023-05-14T22:51:35.494Z,26.80
2023-05-14T22:54:05.138Z,26.80
2023-05-14T22:56:33.143Z,26.80
2023-05-14T22:59:01.359Z,26.70
2023-05-14T23:01:29.788Z,26.70
2023-05-14T23:03:57.956Z,26.70
2023-05-14T23:06:26.604Z,26.60
2023-05-14T23:08:54.699Z,26.60
2023-05-14T23:11:24.184Z,26.60
2023-05-14T23:13:52.281Z,26.60
2023-05-14T23:16:20.545Z,26.50
2023-05-14T23:18:48.725Z,26.50
2023-05-14T23:21:16.960Z,26.40
2023-05-14T23:23:45.508Z,26.40
2023-05-14T23:26:13.791Z,26.40
2023-05-14T23:28:43.369Z,26.40
2023-05-14T23:31:11.856Z,26.40
2023-05-14T23:33:40.269Z,26.30
2023-05-14T23:36:09.282Z,26.30
2023-05-14T23:38:37.586Z,26.10
2023-05-14T23:41:05.911Z,26.00
2023-05-14T23:43:34.288Z,25.90
2023-05-14T23:46:04.041Z,25.90
2023-05-14T23:48:32.641Z,25.90
2023-05-14T23:51:00.765Z,25.90
2023-05-14T23:53:28.950Z,26.00
2023-05-14T23:55:57.056Z,26.00
2023-05-14T23:58:25.319Z,25.90
